Ludlow, Kentucky
Current Conditions -  °F | °C
As of 8:17 AM on Thursday 27 Nov 2014 (Local Time) from KI69 Reporting Station
Overcast Overcast  
Wind Chill: 25°   Ceiling: 3100
Heat Index: 32°   Visibility: 10mi
Dew Point: 28°   Wind: 8mph
Humidity: 87%   Direction: 310°NW
Pressure: 30.2"   Gusts: NA
Location:  39.0873°N, 84.548°W
Report Text: KI69 271317Z AUTO 31007KT 10SM SCT015 OVC031 00/M02 A3020 RMK AO1
Loading
Personal Weather Stations






























Interactive Weather Map New forecast layout! Learn more

10-Day Weather Forecast

Advertisements
Track Severe Weather on mobile